sensor_id;sensor_type;location;lat;lon;timestamp;P1;durP1;ratioP1;P2;durP2;ratioP2
28246;SDS011;34504;53.178;22.058;2022-09-09T09:06:53;16.73;;;10.55;;
28246;SDS011;34504;53.178;22.058;2022-09-09T09:09:36;15.32;;;9.65;;
28246;SDS011;34504;53.178;22.058;2022-09-09T09:12:30;17.17;;;9.65;;
28246;SDS011;34504;53.178;22.058;2022-09-09T09:15:09;15.73;;;9.60;;
28246;SDS011;34504;53.178;22.058;2022-09-09T09:17:46;20.88;;;10.25;;
28246;SDS011;34504;53.178;22.058;2022-09-09T09:20:16;28.38;;;9.65;;
28246;SDS011;34504;53.178;22.058;2022-09-09T09:22:49;15.93;;;10.38;;
28246;SDS011;34504;53.178;22.058;2022-09-09T09:28:00;16.35;;;10.13;;
28246;SDS011;34504;53.178;22.058;2022-09-09T09:30:33;19.13;;;10.85;;
28246;SDS011;34504;53.178;22.058;2022-09-09T09:33:11;18.55;;;9.90;;
28246;SDS011;34504;53.178;22.058;2022-09-09T09:35:48;16.95;;;9.88;;
28246;SDS011;34504;53.178;22.058;2022-09-09T09:38:20;19.50;;;10.63;;
28246;SDS011;34504;53.178;22.058;2022-09-09T09:41:10;13.07;;;9.18;;
28246;SDS011;34504;53.178;22.058;2022-09-09T09:43:40;19.00;;;10.38;;
28246;SDS011;34504;53.178;22.058;2022-09-09T09:46:19;16.17;;;10.50;;
28246;SDS011;34504;53.178;22.058;2022-09-09T09:49:03;17.88;;;11.50;;
28246;SDS011;34504;53.178;22.058;2022-09-09T09:51:34;17.92;;;10.13;;
28246;SDS011;34504;53.178;22.058;2022-09-09T09:54:09;18.60;;;10.20;;
28246;SDS011;34504;53.178;22.058;2022-09-09T09:56:42;15.20;;;10.23;;
28246;SDS011;34504;53.178;22.058;2022-09-09T10:02:21;61.00;;;30.35;;
28246;SDS011;34504;53.178;22.058;2022-09-09T10:05:12;25.35;;;12.13;;
28246;SDS011;34504;53.178;22.058;2022-09-09T10:08:00;21.65;;;13.88;;
28246;SDS011;34504;53.178;22.058;2022-09-09T10:20:35;17.85;;;10.20;;
28246;SDS011;34504;53.178;22.058;2022-09-09T10:23:02;15.05;;;9.85;;
28246;SDS011;34504;53.178;22.058;2022-09-09T10:25:43;16.80;;;10.52;;
28246;SDS011;34504;53.178;22.058;2022-09-09T10:46:16;17.13;;;10.20;;
28246;SDS011;34504;53.178;22.058;2022-09-09T10:51:51;17.45;;;11.20;;
28246;SDS011;34504;53.178;22.058;2022-09-09T11:00:18;18.38;;;11.32;;
28246;SDS011;34504;53.178;22.058;2022-09-09T11:02:52;14.55;;;9.88;;
28246;SDS011;34504;53.178;22.058;2022-09-09T11:05:29;14.40;;;9.63;;
28246;SDS011;34504;53.178;22.058;2022-09-09T11:08:08;15.45;;;10.50;;
28246;SDS011;34504;53.178;22.058;2022-09-09T11:10:53;21.80;;;11.90;;
28246;SDS011;34504;53.178;22.058;2022-09-09T11:13:51;14.20;;;9.82;;
28246;SDS011;34504;53.178;22.058;2022-09-09T11:25:56;15.80;;;10.10;;
28246;SDS011;34504;53.178;22.058;2022-09-09T11:28:24;15.77;;;9.80;;
28246;SDS011;34504;53.178;22.058;2022-09-09T11:31:03;19.00;;;11.80;;
28246;SDS011;34504;53.178;22.058;2022-09-09T11:34:56;17.70;;;9.70;;
28246;SDS011;34504;53.178;22.058;2022-09-09T11:37:53;21.45;;;10.88;;
28246;SDS011;34504;53.178;22.058;2022-09-09T11:40:35;16.92;;;10.88;;
28246;SDS011;34504;53.178;22.058;2022-09-09T11:46:12;17.73;;;10.80;;
28246;SDS011;34504;53.178;22.058;2022-09-09T11:49:00;18.27;;;11.23;;
28246;SDS011;34504;53.178;22.058;2022-09-09T11:51:29;17.92;;;11.40;;
28246;SDS011;34504;53.178;22.058;2022-09-09T11:54:00;22.83;;;12.63;;
28246;SDS011;34504;53.178;22.058;2022-09-09T11:56:43;24.27;;;14.35;;
28246;SDS011;34504;53.178;22.058;2022-09-09T11:59:22;20.60;;;12.75;;
28246;SDS011;34504;53.178;22.058;2022-09-09T12:12:49;25.67;;;14.68;;
28246;SDS011;34504;53.178;22.058;2022-09-09T12:15:19;18.17;;;11.68;;
28246;SDS011;34504;53.178;22.058;2022-09-09T12:17:49;12.77;;;8.43;;
28246;SDS011;34504;53.178;22.058;2022-09-09T12:20:33;18.55;;;12.20;;
28246;SDS011;34504;53.178;22.058;2022-09-09T12:31:25;14.25;;;9.45;;
28246;SDS011;34504;53.178;22.058;2022-09-09T12:34:14;16.63;;;10.20;;
28246;SDS011;34504;53.178;22.058;2022-09-09T12:36:55;16.42;;;10.50;;
28246;SDS011;34504;53.178;22.058;2022-09-09T12:39:30;16.65;;;10.30;;
28246;SDS011;34504;53.178;22.058;2022-09-09T12:42:03;13.25;;;9.10;;
28246;SDS011;34504;53.178;22.058;2022-09-09T12:44:31;13.07;;;9.50;;
28246;SDS011;34504;53.178;22.058;2022-09-09T12:47:00;13.48;;;9.23;;
28246;SDS011;34504;53.178;22.058;2022-09-09T12:52:14;13.70;;;9.95;;
28246;SDS011;34504;53.178;22.058;2022-09-09T12:54:50;13.60;;;9.70;;
28246;SDS011;34504;53.178;22.058;2022-09-09T12:57:23;15.82;;;9.23;;
28246;SDS011;34504;53.178;22.058;2022-09-09T13:00:03;13.27;;;9.07;;
28246;SDS011;34504;53.178;22.058;2022-09-09T13:02:49;18.40;;;10.45;;
28246;SDS011;34504;53.178;22.058;2022-09-09T13:05:21;15.82;;;10.68;;
28246;SDS011;34504;53.178;22.058;2022-09-09T13:08:03;15.93;;;9.38;;
28246;SDS011;34504;53.178;22.058;2022-09-09T13:10:45;14.00;;;9.85;;
28246;SDS011;34504;53.178;22.058;2022-09-09T13:13:27;14.88;;;9.18;;
28246;SDS011;34504;53.178;22.058;2022-09-09T13:16:28;19.30;;;11.30;;
28246;SDS011;34504;53.178;22.058;2022-09-09T13:19:06;15.57;;;10.15;;
28246;SDS011;34504;53.178;22.058;2022-09-09T13:21:42;20.15;;;12.75;;
28246;SDS011;34504;53.178;22.058;2022-09-09T13:27:03;16.60;;;10.10;;
28246;SDS011;34504;53.178;22.058;2022-09-09T13:29:51;24.48;;;13.63;;
28246;SDS011;34504;53.178;22.058;2022-09-09T13:32:24;21.25;;;12.55;;
28246;SDS011;34504;53.178;22.058;2022-09-09T13:34:58;18.10;;;10.80;;
28246;SDS011;34504;53.178;22.058;2022-09-09T13:37:31;19.02;;;10.55;;
28246;SDS011;34504;53.178;22.058;2022-09-09T13:40:04;20.77;;;11.38;;
28246;SDS011;34504;53.178;22.058;2022-09-09T13:42:35;19.67;;;10.77;;
28246;SDS011;34504;53.178;22.058;2022-09-09T13:45:16;16.80;;;11.23;;
28246;SDS011;34504;53.178;22.058;2022-09-09T13:47:50;19.33;;;11.88;;
28246;SDS011;34504;53.178;22.058;2022-09-09T13:52:51;18.20;;;11.68;;
28246;SDS011;34504;53.178;22.058;2022-09-09T13:55:21;15.65;;;11.25;;
28246;SDS011;34504;53.178;22.058;2022-09-09T13:57:54;16.83;;;11.23;;
28246;SDS011;34504;53.178;22.058;2022-09-09T14:00:32;15.35;;;10.75;;
28246;SDS011;34504;53.178;22.058;2022-09-09T14:03:01;16.80;;;11.50;;
28246;SDS011;34504;53.178;22.058;2022-09-09T14:05:30;18.92;;;11.60;;
28246;SDS011;34504;53.178;22.058;2022-09-09T14:07:59;19.60;;;11.43;;
28246;SDS011;34504;53.178;22.058;2022-09-09T14:10:28;17.80;;;11.00;;
28246;SDS011;34504;53.178;22.058;2022-09-09T14:12:56;14.68;;;10.48;;
28246;SDS011;34504;53.178;22.058;2022-09-09T14:15:24;20.40;;;11.07;;
28246;SDS011;34504;53.178;22.058;2022-09-09T14:17:52;16.48;;;10.60;;
28246;SDS011;34504;53.178;22.058;2022-09-09T14:20:21;20.17;;;12.77;;
28246;SDS011;34504;53.178;22.058;2022-09-09T14:22:49;18.67;;;12.00;;
28246;SDS011;34504;53.178;22.058;2022-09-09T14:25:17;20.65;;;12.50;;
28246;SDS011;34504;53.178;22.058;2022-09-09T14:27:45;17.33;;;12.32;;
28246;SDS011;34504;53.178;22.058;2022-09-09T14:30:13;17.48;;;11.43;;
28246;SDS011;34504;53.178;22.058;2022-09-09T14:32:41;19.60;;;12.10;;
28246;SDS011;34504;53.178;22.058;2022-09-09T14:35:09;23.13;;;12.57;;
28246;SDS011;34504;53.178;22.058;2022-09-09T14:37:37;16.80;;;11.68;;
28246;SDS011;34504;53.178;22.058;2022-09-09T14:40:06;19.58;;;12.48;;
28246;SDS011;34504;53.178;22.058;2022-09-09T14:42:34;18.67;;;12.23;;
28246;SDS011;34504;53.178;22.058;2022-09-09T14:45:02;19.33;;;11.57;;
28246;SDS011;34504;53.178;22.058;2022-09-09T14:47:30;20.05;;;11.98;;
28246;SDS011;34504;53.178;22.058;2022-09-09T14:49:58;17.23;;;12.55;;
28246;SDS011;34504;53.178;22.058;2022-09-09T14:52:29;19.52;;;11.85;;
28246;SDS011;34504;53.178;22.058;2022-09-09T14:54:57;23.52;;;13.63;;
28246;SDS011;34504;53.178;22.058;2022-09-09T14:57:25;20.77;;;12.05;;
28246;SDS011;34504;53.178;22.058;2022-09-09T14:59:53;20.52;;;13.27;;
28246;SDS011;34504;53.178;22.058;2022-09-09T15:02:21;24.38;;;12.85;;
28246;SDS011;34504;53.178;22.058;2022-09-09T15:04:49;17.45;;;11.90;;
28246;SDS011;34504;53.178;22.058;2022-09-09T15:07:17;17.27;;;11.98;;
28246;SDS011;34504;53.178;22.058;2022-09-09T15:09:46;20.33;;;11.95;;
28246;SDS011;34504;53.178;22.058;2022-09-09T15:12:16;20.30;;;12.32;;
28246;SDS011;34504;53.178;22.058;2022-09-09T15:14:46;18.13;;;12.20;;
28246;SDS011;34504;53.178;22.058;2022-09-09T15:17:14;18.23;;;11.15;;
28246;SDS011;34504;53.178;22.058;2022-09-09T15:19:42;17.27;;;11.77;;
28246;SDS011;34504;53.178;22.058;2022-09-09T15:22:10;20.52;;;12.35;;
28246;SDS011;34504;53.178;22.058;2022-09-09T15:24:38;15.38;;;11.00;;
28246;SDS011;34504;53.178;22.058;2022-09-09T15:27:06;19.65;;;11.95;;
28246;SDS011;34504;53.178;22.058;2022-09-09T15:29:33;17.25;;;10.95;;
28246;SDS011;34504;53.178;22.058;2022-09-09T15:32:01;18.80;;;11.52;;
28246;SDS011;34504;53.178;22.058;2022-09-09T15:34:30;15.40;;;11.30;;
28246;SDS011;34504;53.178;22.058;2022-09-09T15:36:59;20.13;;;12.15;;
28246;SDS011;34504;53.178;22.058;2022-09-09T15:39:29;16.73;;;10.55;;
28246;SDS011;34504;53.178;22.058;2022-09-09T15:42:01;15.55;;;11.00;;
28246;SDS011;34504;53.178;22.058;2022-09-09T15:44:29;18.52;;;11.07;;
28246;SDS011;34504;53.178;22.058;2022-09-09T15:47:05;17.13;;;11.13;;
28246;SDS011;34504;53.178;22.058;2022-09-09T15:49:32;19.20;;;11.05;;
28246;SDS011;34504;53.178;22.058;2022-09-09T15:52:00;17.35;;;10.07;;
28246;SDS011;34504;53.178;22.058;2022-09-09T15:54:31;16.57;;;10.50;;
28246;SDS011;34504;53.178;22.058;2022-09-09T15:57:02;18.60;;;10.40;;
28246;SDS011;34504;53.178;22.058;2022-09-09T15:59:31;14.53;;;10.40;;
28246;SDS011;34504;53.178;22.058;2022-09-09T16:02:01;16.92;;;10.65;;
28246;SDS011;34504;53.178;22.058;2022-09-09T16:04:32;17.45;;;10.60;;
28246;SDS011;34504;53.178;22.058;2022-09-09T16:07:02;13.38;;;9.25;;
28246;SDS011;34504;53.178;22.058;2022-09-09T16:09:32;17.07;;;9.70;;
28246;SDS011;34504;53.178;22.058;2022-09-09T16:12:03;17.35;;;10.77;;
28246;SDS011;34504;53.178;22.058;2022-09-09T16:17:03;15.93;;;9.80;;
28246;SDS011;34504;53.178;22.058;2022-09-09T16:19:32;19.15;;;9.95;;
28246;SDS011;34504;53.178;22.058;2022-09-09T16:22:02;17.83;;;11.20;;
28246;SDS011;34504;53.178;22.058;2022-09-09T16:24:31;18.27;;;10.63;;
28246;SDS011;34504;53.178;22.058;2022-09-09T16:27:02;27.58;;;20.02;;
28246;SDS011;34504;53.178;22.058;2022-09-09T16:29:31;63.85;;;40.92;;
28246;SDS011;34504;53.178;22.058;2022-09-09T16:31:59;19.98;;;12.23;;
28246;SDS011;34504;53.178;22.058;2022-09-09T16:34:31;16.77;;;10.98;;
28246;SDS011;34504;53.178;22.058;2022-09-09T16:37:01;17.40;;;10.15;;
28246;SDS011;34504;53.178;22.058;2022-09-09T16:39:29;18.15;;;10.40;;
28246;SDS011;34504;53.178;22.058;2022-09-09T16:41:58;15.88;;;10.30;;
28246;SDS011;34504;53.178;22.058;2022-09-09T16:44:27;17.17;;;10.75;;
28246;SDS011;34504;53.178;22.058;2022-09-09T16:46:56;16.90;;;10.73;;
28246;SDS011;34504;53.178;22.058;2022-09-09T16:49:27;20.00;;;11.07;;
28246;SDS011;34504;53.178;22.058;2022-09-09T16:51:58;19.00;;;11.00;;
28246;SDS011;34504;53.178;22.058;2022-09-09T16:54:27;16.60;;;10.48;;
28246;SDS011;34504;53.178;22.058;2022-09-09T16:56:56;19.25;;;10.50;;
28246;SDS011;34504;53.178;22.058;2022-09-09T16:59:27;14.23;;;10.50;;
28246;SDS011;34504;53.178;22.058;2022-09-09T17:01:56;19.08;;;11.55;;
28246;SDS011;34504;53.178;22.058;2022-09-09T17:04:27;20.67;;;12.50;;
28246;SDS011;34504;53.178;22.058;2022-09-09T17:06:58;21.70;;;11.80;;
28246;SDS011;34504;53.178;22.058;2022-09-09T17:09:27;25.02;;;12.27;;
28246;SDS011;34504;53.178;22.058;2022-09-09T17:11:56;17.60;;;10.77;;
28246;SDS011;34504;53.178;22.058;2022-09-09T17:14:25;20.95;;;12.40;;
28246;SDS011;34504;53.178;22.058;2022-09-09T17:16:53;18.27;;;11.15;;
28246;SDS011;34504;53.178;22.058;2022-09-09T17:19:21;21.40;;;11.25;;
28246;SDS011;34504;53.178;22.058;2022-09-09T17:21:49;20.15;;;11.27;;
28246;SDS011;34504;53.178;22.058;2022-09-09T17:24:37;20.45;;;11.80;;
28246;SDS011;34504;53.178;22.058;2022-09-09T17:27:06;19.58;;;11.95;;
28246;SDS011;34504;53.178;22.058;2022-09-09T17:29:34;19.58;;;11.18;;
28246;SDS011;34504;53.178;22.058;2022-09-09T17:32:05;16.85;;;11.77;;
28246;SDS011;34504;53.178;22.058;2022-09-09T17:34:34;15.63;;;10.27;;
28246;SDS011;34504;53.178;22.058;2022-09-09T17:37:03;16.23;;;10.98;;
28246;SDS011;34504;53.178;22.058;2022-09-09T17:39:33;16.10;;;11.52;;
28246;SDS011;34504;53.178;22.058;2022-09-09T17:42:02;16.35;;;11.35;;
28246;SDS011;34504;53.178;22.058;2022-09-09T17:44:30;17.63;;;11.35;;
28246;SDS011;34504;53.178;22.058;2022-09-09T17:46:59;16.23;;;10.77;;
28246;SDS011;34504;53.178;22.058;2022-09-09T17:49:27;17.60;;;11.90;;
28246;SDS011;34504;53.178;22.058;2022-09-09T17:51:55;17.73;;;10.40;;
28246;SDS011;34504;53.178;22.058;2022-09-09T17:54:23;18.25;;;11.00;;
28246;SDS011;34504;53.178;22.058;2022-09-09T17:56:51;16.80;;;11.02;;
28246;SDS011;34504;53.178;22.058;2022-09-09T17:59:19;16.05;;;10.27;;
28246;SDS011;34504;53.178;22.058;2022-09-09T18:01:47;19.30;;;10.68;;
28246;SDS011;34504;53.178;22.058;2022-09-09T18:04:17;12.68;;;7.80;;
28246;SDS011;34504;53.178;22.058;2022-09-09T18:06:50;14.70;;;10.60;;
28246;SDS011;34504;53.178;22.058;2022-09-09T18:09:22;18.38;;;10.23;;
28246;SDS011;34504;53.178;22.058;2022-09-09T18:11:52;17.70;;;11.15;;
28246;SDS011;34504;53.178;22.058;2022-09-09T18:14:24;14.70;;;9.75;;
28246;SDS011;34504;53.178;22.058;2022-09-09T18:16:59;16.90;;;10.30;;
28246;SDS011;34504;53.178;22.058;2022-09-09T18:19:29;13.23;;;8.85;;
28246;SDS011;34504;53.178;22.058;2022-09-09T18:21:59;15.43;;;8.90;;
28246;SDS011;34504;53.178;22.058;2022-09-09T18:26:59;14.90;;;8.75;;
28246;SDS011;34504;53.178;22.058;2022-09-09T18:29:27;12.52;;;8.82;;
28246;SDS011;34504;53.178;22.058;2022-09-09T18:31:56;20.10;;;11.57;;
28246;SDS011;34504;53.178;22.058;2022-09-09T18:34:24;14.88;;;10.57;;
28246;SDS011;34504;53.178;22.058;2022-09-09T18:39:25;13.40;;;9.15;;
28246;SDS011;34504;53.178;22.058;2022-09-09T18:41:57;15.70;;;8.75;;
28246;SDS011;34504;53.178;22.058;2022-09-09T18:44:29;16.20;;;10.13;;
28246;SDS011;34504;53.178;22.058;2022-09-09T18:47:00;20.02;;;11.27;;
28246;SDS011;34504;53.178;22.058;2022-09-09T18:49:30;17.00;;;10.33;;
28246;SDS011;34504;53.178;22.058;2022-09-09T18:52:00;15.35;;;10.82;;
28246;SDS011;34504;53.178;22.058;2022-09-09T18:54:29;16.90;;;10.38;;
28246;SDS011;34504;53.178;22.058;2022-09-09T18:57:01;16.20;;;9.95;;
28246;SDS011;34504;53.178;22.058;2022-09-09T18:59:29;15.85;;;10.40;;
28246;SDS011;34504;53.178;22.058;2022-09-09T19:01:58;17.55;;;11.73;;
28246;SDS011;34504;53.178;22.058;2022-09-09T19:04:27;21.55;;;11.30;;
28246;SDS011;34504;53.178;22.058;2022-09-09T19:06:57;23.23;;;12.05;;
28246;SDS011;34504;53.178;22.058;2022-09-09T19:09:27;20.08;;;11.52;;
28246;SDS011;34504;53.178;22.058;2022-09-09T19:11:59;20.83;;;11.40;;
28246;SDS011;34504;53.178;22.058;2022-09-09T19:14:28;20.00;;;11.82;;
28246;SDS011;34504;53.178;22.058;2022-09-09T19:16:56;20.52;;;12.20;;
28246;SDS011;34504;53.178;22.058;2022-09-09T19:19:30;20.40;;;12.50;;
28246;SDS011;34504;53.178;22.058;2022-09-09T19:21:59;24.75;;;13.88;;
28246;SDS011;34504;53.178;22.058;2022-09-09T19:24:30;21.52;;;13.23;;
28246;SDS011;34504;53.178;22.058;2022-09-09T19:27:00;27.80;;;14.95;;
28246;SDS011;34504;53.178;22.058;2022-09-09T19:29:31;21.77;;;13.20;;
28246;SDS011;34504;53.178;22.058;2022-09-09T19:32:02;26.08;;;13.63;;
28246;SDS011;34504;53.178;22.058;2022-09-09T19:34:51;26.85;;;13.88;;
28246;SDS011;34504;53.178;22.058;2022-09-09T19:37:18;25.60;;;14.82;;
28246;SDS011;34504;53.178;22.058;2022-09-09T19:39:46;25.05;;;15.30;;
28246;SDS011;34504;53.178;22.058;2022-09-09T19:42:16;27.70;;;14.57;;
28246;SDS011;34504;53.178;22.058;2022-09-09T19:44:44;33.45;;;15.43;;
28246;SDS011;34504;53.178;22.058;2022-09-09T19:47:12;29.30;;;15.68;;
28246;SDS011;34504;53.178;22.058;2022-09-09T19:49:41;23.38;;;14.75;;
28246;SDS011;34504;53.178;22.058;2022-09-09T19:52:13;26.95;;;15.98;;
28246;SDS011;34504;53.178;22.058;2022-09-09T19:54:43;31.27;;;15.90;;
28246;SDS011;34504;53.178;22.058;2022-09-09T19:57:11;26.42;;;15.50;;
28246;SDS011;34504;53.178;22.058;2022-09-09T19:59:39;28.60;;;15.77;;
28246;SDS011;34504;53.178;22.058;2022-09-09T20:02:08;30.67;;;17.15;;
28246;SDS011;34504;53.178;22.058;2022-09-09T20:04:42;33.70;;;17.70;;
28246;SDS011;34504;53.178;22.058;2022-09-09T20:07:11;33.95;;;17.88;;
28246;SDS011;34504;53.178;22.058;2022-09-09T20:09:39;31.67;;;17.65;;
28246;SDS011;34504;53.178;22.058;2022-09-09T20:12:07;30.90;;;18.00;;
28246;SDS011;34504;53.178;22.058;2022-09-09T20:14:36;31.05;;;16.90;;
28246;SDS011;34504;53.178;22.058;2022-09-09T20:17:06;36.58;;;17.17;;
28246;SDS011;34504;53.178;22.058;2022-09-09T20:19:35;35.95;;;17.30;;
28246;SDS011;34504;53.178;22.058;2022-09-09T20:22:03;31.10;;;17.45;;
28246;SDS011;34504;53.178;22.058;2022-09-09T20:24:31;34.42;;;18.10;;
28246;SDS011;34504;53.178;22.058;2022-09-09T20:26:59;32.10;;;17.83;;
28246;SDS011;34504;53.178;22.058;2022-09-09T20:29:27;30.45;;;17.13;;
28246;SDS011;34504;53.178;22.058;2022-09-09T20:31:55;32.45;;;18.35;;
28246;SDS011;34504;53.178;22.058;2022-09-09T20:34:23;34.08;;;18.15;;
28246;SDS011;34504;53.178;22.058;2022-09-09T20:36:53;33.63;;;18.25;;
28246;SDS011;34504;53.178;22.058;2022-09-09T20:39:23;35.40;;;18.67;;
28246;SDS011;34504;53.178;22.058;2022-09-09T20:41:51;35.63;;;18.60;;
28246;SDS011;34504;53.178;22.058;2022-09-09T20:44:20;30.38;;;18.48;;
28246;SDS011;34504;53.178;22.058;2022-09-09T20:46:51;43.13;;;18.95;;
28246;SDS011;34504;53.178;22.058;2022-09-09T20:49:23;35.50;;;18.88;;
28246;SDS011;34504;53.178;22.058;2022-09-09T20:51:51;33.85;;;17.70;;
28246;SDS011;34504;53.178;22.058;2022-09-09T20:54:20;40.00;;;18.88;;
28246;SDS011;34504;53.178;22.058;2022-09-09T20:56:51;30.60;;;18.45;;
28246;SDS011;34504;53.178;22.058;2022-09-09T21:01:51;31.77;;;17.08;;
28246;SDS011;34504;53.178;22.058;2022-09-09T21:04:20;38.88;;;18.42;;
28246;SDS011;34504;53.178;22.058;2022-09-09T21:06:49;37.53;;;18.63;;
28246;SDS011;34504;53.178;22.058;2022-09-09T21:09:17;34.58;;;18.42;;
28246;SDS011;34504;53.178;22.058;2022-09-09T21:11:49;32.33;;;17.95;;
28246;SDS011;34504;53.178;22.058;2022-09-09T21:14:17;32.08;;;17.50;;
28246;SDS011;34504;53.178;22.058;2022-09-09T21:16:45;36.60;;;16.90;;
28246;SDS011;34504;53.178;22.058;2022-09-09T21:19:13;33.47;;;16.88;;
28246;SDS011;34504;53.178;22.058;2022-09-09T21:21:41;33.65;;;17.30;;
28246;SDS011;34504;53.178;22.058;2022-09-09T21:24:09;35.40;;;18.17;;
28246;SDS011;34504;53.178;22.058;2022-09-09T21:26:37;28.85;;;15.55;;
28246;SDS011;34504;53.178;22.058;2022-09-09T21:29:05;35.17;;;16.17;;
28246;SDS011;34504;53.178;22.058;2022-09-09T21:31:34;35.47;;;17.20;;
28246;SDS011;34504;53.178;22.058;2022-09-09T21:34:03;33.80;;;16.50;;
28246;SDS011;34504;53.178;22.058;2022-09-09T21:36:31;34.33;;;17.38;;
28246;SDS011;34504;53.178;22.058;2022-09-09T21:39:00;32.80;;;16.58;;
28246;SDS011;34504;53.178;22.058;2022-09-09T21:41:28;29.23;;;15.98;;
28246;SDS011;34504;53.178;22.058;2022-09-09T21:43:56;28.33;;;15.55;;
28246;SDS011;34504;53.178;22.058;2022-09-09T21:46:24;34.05;;;16.38;;
28246;SDS011;34504;53.178;22.058;2022-09-09T21:48:54;32.97;;;17.23;;
28246;SDS011;34504;53.178;22.058;2022-09-09T21:51:24;31.73;;;15.57;;
28246;SDS011;34504;53.178;22.058;2022-09-09T21:53:54;30.17;;;15.70;;
28246;SDS011;34504;53.178;22.058;2022-09-09T21:56:23;31.63;;;15.70;;
28246;SDS011;34504;53.178;22.058;2022-09-09T21:58:53;32.53;;;15.85;;
28246;SDS011;34504;53.178;22.058;2022-09-09T22:01:25;31.35;;;15.60;;
28246;SDS011;34504;53.178;22.058;2022-09-09T22:03:53;29.85;;;15.73;;
28246;SDS011;34504;53.178;22.058;2022-09-09T22:06:22;32.70;;;16.58;;
28246;SDS011;34504;53.178;22.058;2022-09-09T22:08:52;31.67;;;15.85;;
28246;SDS011;34504;53.178;22.058;2022-09-09T22:11:21;28.13;;;14.77;;
28246;SDS011;34504;53.178;22.058;2022-09-09T22:13:50;30.98;;;14.88;;
28246;SDS011;34504;53.178;22.058;2022-09-09T22:16:22;31.15;;;15.32;;
28246;SDS011;34504;53.178;22.058;2022-09-09T22:18:53;29.60;;;14.68;;
28246;SDS011;34504;53.178;22.058;2022-09-09T22:21:27;28.80;;;14.00;;
28246;SDS011;34504;53.178;22.058;2022-09-09T22:23:58;29.35;;;14.27;;
28246;SDS011;34504;53.178;22.058;2022-09-09T22:26:29;33.85;;;16.38;;
28246;SDS011;34504;53.178;22.058;2022-09-09T22:28:59;29.10;;;15.13;;
28246;SDS011;34504;53.178;22.058;2022-09-09T22:31:27;34.08;;;15.18;;
28246;SDS011;34504;53.178;22.058;2022-09-09T22:33:56;29.17;;;15.10;;
28246;SDS011;34504;53.178;22.058;2022-09-09T22:36:24;29.63;;;14.98;;
28246;SDS011;34504;53.178;22.058;2022-09-09T22:38:52;29.40;;;15.82;;
28246;SDS011;34504;53.178;22.058;2022-09-09T22:41:22;25.73;;;11.30;;
28246;SDS011;34504;53.178;22.058;2022-09-09T22:43:51;25.38;;;14.30;;
28246;SDS011;34504;53.178;22.058;2022-09-09T22:46:19;30.67;;;15.10;;
28246;SDS011;34504;53.178;22.058;2022-09-09T22:48:50;29.30;;;14.30;;
28246;SDS011;34504;53.178;22.058;2022-09-09T22:51:18;31.60;;;15.18;;
28246;SDS011;34504;53.178;22.058;2022-09-09T22:53:46;30.33;;;15.07;;
28246;SDS011;34504;53.178;22.058;2022-09-09T22:56:15;27.98;;;14.13;;
28246;SDS011;34504;53.178;22.058;2022-09-09T22:58:45;33.77;;;15.73;;
28246;SDS011;34504;53.178;22.058;2022-09-09T23:01:14;28.63;;;15.00;;
28246;SDS011;34504;53.178;22.058;2022-09-09T23:03:46;28.23;;;14.48;;
28246;SDS011;34504;53.178;22.058;2022-09-09T23:06:25;29.77;;;15.32;;
28246;SDS011;34504;53.178;22.058;2022-09-09T23:08:55;33.42;;;15.10;;
28246;SDS011;34504;53.178;22.058;2022-09-09T23:11:25;32.58;;;15.15;;
28246;SDS011;34504;53.178;22.058;2022-09-09T23:13:58;25.88;;;14.60;;
28246;SDS011;34504;53.178;22.058;2022-09-09T23:16:28;38.38;;;14.70;;
28246;SDS011;34504;53.178;22.058;2022-09-09T23:19:06;33.47;;;15.48;;
28246;SDS011;34504;53.178;22.058;2022-09-09T23:21:37;30.13;;;15.13;;
28246;SDS011;34504;53.178;22.058;2022-09-09T23:24:06;27.85;;;14.38;;
28246;SDS011;34504;53.178;22.058;2022-09-09T23:26:35;31.75;;;14.30;;
28246;SDS011;34504;53.178;22.058;2022-09-09T23:29:02;30.00;;;15.15;;
28246;SDS011;34504;53.178;22.058;2022-09-09T23:31:31;35.05;;;15.35;;
28246;SDS011;34504;53.178;22.058;2022-09-09T23:34:03;33.72;;;15.05;;
28246;SDS011;34504;53.178;22.058;2022-09-09T23:36:32;34.30;;;15.90;;
28246;SDS011;34504;53.178;22.058;2022-09-09T23:39:02;35.85;;;16.73;;
28246;SDS011;34504;53.178;22.058;2022-09-09T23:41:32;30.08;;;14.85;;
28246;SDS011;34504;53.178;22.058;2022-09-09T23:44:01;36.00;;;15.77;;
28246;SDS011;34504;53.178;22.058;2022-09-09T23:46:30;29.67;;;14.88;;
28246;SDS011;34504;53.178;22.058;2022-09-09T23:49:01;27.23;;;14.32;;
28246;SDS011;34504;53.178;22.058;2022-09-09T23:51:30;38.00;;;17.08;;
28246;SDS011;34504;53.178;22.058;2022-09-09T23:53:59;31.15;;;15.05;;
28246;SDS011;34504;53.178;22.058;2022-09-09T23:56:33;29.77;;;14.52;;
28246;SDS011;34504;53.178;22.058;2022-09-09T23:59:04;36.35;;;14.88;;
